Time;durP1;ratioP1;P1;durP2;ratioP2;P2;SDS_P1;SDS_P2;PMS_P1;PMS_P2;Temp;Humidity;BMP_temperature;BMP_pressure;BME280_temperature;BME280_humidity;BME280_pressure;Samples;Min_cycle;Max_cycle;Signal;HPM_P1;HPM_P2
2023/05/13 00:00:16;;;;;;;;;;;15.90;99.90;;;;;;7325061;19;110818;-62
2023/05/13 00:02:44;;;;;;;;;;;15.90;99.90;;;;;;7333198;19;109711;-62
2023/05/13 00:05:11;;;;;;;;;;;15.90;99.90;;;;;;7329453;19;110569;-65
2023/05/13 00:07:38;;;;;;;;;;;15.90;99.90;;;;;;7331239;19;110529;-61
2023/05/13 00:10:05;;;;;;;;;;;15.90;99.90;;;;;;7342694;19;109536;-62
2023/05/13 00:12:32;;;;;;;;;;;15.90;99.90;;;;;;7333421;19;110267;-61
2023/05/13 00:14:59;;;;;;;;;;;15.80;99.90;;;;;;7334618;19;110426;-62
2023/05/13 00:17:26;;;;;;;;;;;15.80;99.90;;;;;;7340184;19;112436;-62
2023/05/13 00:19:53;;;;;;;;;;;15.80;99.90;;;;;;7333876;19;110743;-62
2023/05/13 00:22:20;;;;;;;;;;;15.80;99.90;;;;;;7335877;19;110208;-61
2023/05/13 00:24:47;;;;;;;;;;;15.80;99.90;;;;;;7336143;19;109896;-61
2023/05/13 00:27:14;;;;;;;;;;;15.80;99.90;;;;;;7337122;19;110970;-61
2023/05/13 00:29:41;;;;;;;;;;;15.80;99.90;;;;;;7338278;19;112459;-61
2023/05/13 00:32:08;;;;;;;;;;;15.70;99.90;;;;;;7340800;19;109786;-62
2023/05/13 00:34:36;;;;;;;;;;;15.70;99.90;;;;;;7335614;19;110443;-61
2023/05/13 00:37:03;;;;;;;;;;;15.70;99.90;;;;;;7337650;19;109910;-61
2023/05/13 00:39:30;;;;;;;;;;;15.70;99.90;;;;;;7335718;19;112063;-61
2023/05/13 00:41:58;;;;;;;;;;;15.70;99.90;;;;;;7338816;19;109610;-61
2023/05/13 00:44:26;;;;;;;;;;;15.70;99.90;;;;;;7331862;19;109454;-61
2023/05/13 00:46:53;;;;;;;;;;;15.60;99.90;;;;;;7335440;19;110252;-61
2023/05/13 00:49:20;;;;;;;;;;;15.60;99.90;;;;;;7330588;19;112175;-61
2023/05/13 00:51:53;;;;;;;;;;;15.60;99.90;;;;;;7338691;19;109623;-62
2023/05/13 00:54:21;;;;;;;;;;;15.60;99.90;;;;;;7341297;19;110222;-62
2023/05/13 00:56:48;;;;;;;;;;;15.50;99.90;;;;;;7337744;19;109674;-61
2023/05/13 00:59:15;;;;;;;;;;;15.50;99.90;;;;;;7333663;19;111220;-62
2023/05/13 01:02:00;;;;;;;;;;;15.50;99.90;;;;;;7335165;19;110046;-61
2023/05/13 01:04:39;;;;;;;;;;;15.50;99.90;;;;;;7336443;19;111785;-62
2023/05/13 01:07:26;;;;;;;;;;;15.50;99.90;;;;;;7331861;19;110712;-61
2023/05/13 01:10:07;;;;;;;;;;;15.40;99.90;;;;;;7330568;19;111087;-61
2023/05/13 01:12:35;;;;;;;;;;;15.40;99.90;;;;;;7331644;19;110096;-61
2023/05/13 01:15:08;;;;;;;;;;;15.40;99.90;;;;;;7338000;19;111052;-61
2023/05/13 01:17:38;;;;;;;;;;;15.40;99.90;;;;;;7341577;19;109799;-61
2023/05/13 01:20:07;;;;;;;;;;;15.40;99.90;;;;;;7334344;19;110236;-61
2023/05/13 01:22:34;;;;;;;;;;;15.40;99.90;;;;;;7333852;19;109797;-61
2023/05/13 01:25:01;;;;;;;;;;;15.40;99.90;;;;;;7334267;19;110551;-61
2023/05/13 01:27:28;;;;;;;;;;;15.40;99.90;;;;;;7334324;19;110045;-61
2023/05/13 01:29:55;;;;;;;;;;;15.40;99.90;;;;;;7336473;19;109304;-61
2023/05/13 01:32:23;;;;;;;;;;;15.40;99.90;;;;;;7334834;19;110153;-62
2023/05/13 01:34:50;;;;;;;;;;;15.40;99.90;;;;;;7331794;19;111046;-62
2023/05/13 01:37:18;;;;;;;;;;;15.40;99.90;;;;;;7333648;19;109905;-62
2023/05/13 01:39:46;;;;;;;;;;;15.40;99.90;;;;;;7339587;19;109881;-61
2023/05/13 01:42:14;;;;;;;;;;;15.40;99.90;;;;;;7332794;19;109970;-62
2023/05/13 01:44:41;;;;;;;;;;;15.40;99.90;;;;;;7335318;19;110048;-61
2023/05/13 01:47:08;;;;;;;;;;;15.40;99.90;;;;;;7329142;19;110076;-61
2023/05/13 01:49:35;;;;;;;;;;;15.50;99.90;;;;;;7334768;19;111652;-61
2023/05/13 01:52:03;;;;;;;;;;;15.50;99.90;;;;;;7333442;19;111064;-61
2023/05/13 01:54:30;;;;;;;;;;;15.50;99.90;;;;;;7335638;19;110191;-61
2023/05/13 01:56:57;;;;;;;;;;;15.50;99.90;;;;;;7332945;19;110306;-61
2023/05/13 01:59:24;;;;;;;;;;;15.40;99.90;;;;;;7337525;19;109321;-61
2023/05/13 02:01:51;;;;;;;;;;;15.40;99.90;;;;;;7332945;19;111660;-61
2023/05/13 02:04:20;;;;;;;;;;;15.40;99.90;;;;;;7336041;19;109726;-62
2023/05/13 02:06:47;;;;;;;;;;;15.40;99.90;;;;;;7330310;19;112071;-61
2023/05/13 02:09:15;;;;;;;;;;;15.40;99.90;;;;;;7331196;19;110674;-61
2023/05/13 02:11:42;;;;;;;;;;;15.40;99.90;;;;;;7333801;19;110022;-61
2023/05/13 02:14:09;;;;;;;;;;;15.30;99.90;;;;;;7332624;19;111758;-61
2023/05/13 02:16:36;;;;;;;;;;;15.30;99.90;;;;;;7335913;19;111783;-61
2023/05/13 02:19:03;;;;;;;;;;;15.30;99.90;;;;;;7332518;19;110017;-61
2023/05/13 02:21:31;;;;;;;;;;;15.30;99.90;;;;;;7337858;19;110095;-61
2023/05/13 02:23:58;;;;;;;;;;;15.30;99.90;;;;;;7324089;19;109791;-61
2023/05/13 02:26:40;;;;;;;;;;;15.20;99.90;;;;;;7331051;19;110109;-64
2023/05/13 02:29:07;;;;;;;;;;;15.20;99.90;;;;;;7332080;19;110786;-69
2023/05/13 02:31:35;;;;;;;;;;;15.20;99.90;;;;;;7333699;19;110308;-72
2023/05/13 02:34:02;;;;;;;;;;;15.20;99.90;;;;;;7336128;19;111002;-70
2023/05/13 02:36:29;;;;;;;;;;;15.20;99.90;;;;;;7330659;19;112804;-68
2023/05/13 02:38:57;;;;;;;;;;;15.10;99.90;;;;;;7330153;19;111748;-67
2023/05/13 02:41:24;;;;;;;;;;;15.10;99.90;;;;;;7336119;19;111848;-62
2023/05/13 02:46:30;;;;;;;;;;;15.00;99.90;;;;;;7369808;19;110466;-83
2023/05/13 02:48:58;;;;;;;;;;;14.90;99.90;;;;;;7372928;19;109130;-83
2023/05/13 02:51:25;;;;;;;;;;;15.00;99.90;;;;;;7372052;19;109096;-84
2023/05/13 02:53:55;;;;;;;;;;;14.90;99.90;;;;;;7373223;19;110092;-83
2023/05/13 02:56:22;;;;;;;;;;;14.90;99.90;;;;;;7347148;19;110174;-83
2023/05/13 02:58:49;;;;;;;;;;;14.90;99.90;;;;;;7341647;19;109971;-83
2023/05/13 03:01:16;;;;;;;;;;;14.90;99.90;;;;;;7336106;19;111137;-82
2023/05/13 03:12:00;;;;;;;;;;;14.80;99.90;;;;;;7326373;19;110310;-61
2023/05/13 03:14:27;;;;;;;;;;;14.70;99.90;;;;;;7326837;19;110089;-61
2023/05/13 03:16:54;;;;;;;;;;;14.70;99.90;;;;;;7331364;19;109811;-61
2023/05/13 03:19:22;;;;;;;;;;;14.70;99.90;;;;;;7325911;19;110362;-61
2023/05/13 03:21:49;;;;;;;;;;;14.60;99.90;;;;;;7330625;19;111545;-60
2023/05/13 03:24:16;;;;;;;;;;;14.70;99.90;;;;;;7326986;19;111137;-61
2023/05/13 03:26:43;;;;;;;;;;;14.60;99.90;;;;;;7330273;19;110539;-61
2023/05/13 03:29:10;;;;;;;;;;;14.60;99.90;;;;;;7333922;19;110758;-61
2023/05/13 03:31:38;;;;;;;;;;;14.60;99.90;;;;;;7329016;19;112025;-61
2023/05/13 03:34:05;;;;;;;;;;;14.60;99.90;;;;;;7332369;19;109940;-61
2023/05/13 03:36:33;;;;;;;;;;;14.60;99.90;;;;;;7327850;19;110955;-61
2023/05/13 03:39:00;;;;;;;;;;;14.50;99.90;;;;;;7331062;19;109615;-61
2023/05/13 03:41:27;;;;;;;;;;;14.50;99.90;;;;;;7330163;19;110840;-61
2023/05/13 03:43:54;;;;;;;;;;;14.50;99.90;;;;;;7332599;19;110999;-62
2023/05/13 03:46:22;;;;;;;;;;;14.50;99.90;;;;;;7336977;19;111080;-61
2023/05/13 03:48:49;;;;;;;;;;;14.40;99.90;;;;;;7336174;19;111265;-60
2023/05/13 03:51:16;;;;;;;;;;;14.40;99.90;;;;;;7341214;19;110929;-61
2023/05/13 03:53:43;;;;;;;;;;;14.40;99.90;;;;;;7339605;19;112680;-61
2023/05/13 03:56:10;;;;;;;;;;;14.40;99.90;;;;;;7339827;19;109527;-61
2023/05/13 03:58:37;;;;;;;;;;;14.40;99.90;;;;;;7338679;19;110283;-61
2023/05/13 04:01:05;;;;;;;;;;;14.40;99.90;;;;;;7337529;19;111889;-61
2023/05/13 04:03:33;;;;;;;;;;;14.40;99.90;;;;;;7339405;19;109742;-61
2023/05/13 04:06:00;;;;;;;;;;;14.40;99.90;;;;;;7338265;19;109310;-60
2023/05/13 04:08:27;;;;;;;;;;;14.40;99.90;;;;;;7335377;19;111406;-61
2023/05/13 04:10:55;;;;;;;;;;;14.40;99.90;;;;;;7337446;19;109322;-60
2023/05/13 04:13:22;;;;;;;;;;;14.50;99.90;;;;;;7333669;19;110808;-61
2023/05/13 04:15:50;;;;;;;;;;;14.50;99.90;;;;;;7336475;19;111674;-61
2023/05/13 04:18:17;;;;;;;;;;;14.50;99.90;;;;;;7334056;19;111896;-61
2023/05/13 04:20:43;;;;;;;;;;;14.50;99.90;;;;;;7337349;19;111268;-60
2023/05/13 04:23:10;;;;;;;;;;;14.50;99.90;;;;;;7335570;19;109966;-58
2023/05/13 04:25:38;;;;;;;;;;;14.40;99.90;;;;;;7335922;19;109401;-61
2023/05/13 04:28:05;;;;;;;;;;;14.40;99.90;;;;;;7329132;19;110150;-61
2023/05/13 04:30:33;;;;;;;;;;;14.40;99.90;;;;;;7333892;19;110294;-60
2023/05/13 04:33:01;;;;;;;;;;;14.40;99.90;;;;;;7342228;19;111308;-61
2023/05/13 04:35:28;;;;;;;;;;;14.40;99.90;;;;;;7338481;19;109518;-61
2023/05/13 04:37:55;;;;;;;;;;;14.40;99.90;;;;;;7336212;19;110965;-60
2023/05/13 04:40:22;;;;;;;;;;;14.50;99.90;;;;;;7333376;19;110413;-60
2023/05/13 04:42:53;;;;;;;;;;;14.50;99.90;;;;;;7339299;19;109993;-61
2023/05/13 04:45:20;;;;;;;;;;;14.50;99.90;;;;;;7332005;19;109336;-61
2023/05/13 04:47:48;;;;;;;;;;;14.50;99.90;;;;;;7335283;19;111479;-61
2023/05/13 04:50:15;;;;;;;;;;;14.50;99.90;;;;;;7332793;19;112259;-61
2023/05/13 04:52:43;;;;;;;;;;;14.60;99.90;;;;;;7336377;19;109680;-61
2023/05/13 04:55:10;;;;;;;;;;;14.50;99.90;;;;;;7342896;19;110203;-61
2023/05/13 04:57:38;;;;;;;;;;;14.60;99.90;;;;;;7335421;19;109897;-61
2023/05/13 05:00:07;;;;;;;;;;;14.60;99.90;;;;;;7334239;19;111574;-60
2023/05/13 05:02:34;;;;;;;;;;;14.60;99.90;;;;;;7332788;19;109790;-61
2023/05/13 05:05:01;;;;;;;;;;;14.60;99.90;;;;;;7333035;19;110585;-60
2023/05/13 05:07:28;;;;;;;;;;;14.50;99.90;;;;;;7329951;19;111235;-60
2023/05/13 05:09:55;;;;;;;;;;;14.50;99.90;;;;;;7338604;19;111958;-61
2023/05/13 05:12:22;;;;;;;;;;;14.50;99.90;;;;;;7333134;19;112283;-61
2023/05/13 05:14:49;;;;;;;;;;;14.50;99.90;;;;;;7335515;19;110707;-61
2023/05/13 05:17:16;;;;;;;;;;;14.60;99.90;;;;;;7338838;19;110275;-61
2023/05/13 05:19:43;;;;;;;;;;;14.50;99.90;;;;;;7334741;19;110985;-61
2023/05/13 05:22:10;;;;;;;;;;;14.60;99.90;;;;;;7333256;19;110181;-61
2023/05/13 05:24:37;;;;;;;;;;;14.60;99.90;;;;;;7335528;19;111052;-65
2023/05/13 05:27:05;;;;;;;;;;;14.60;99.90;;;;;;7330027;19;111127;-61
2023/05/13 05:29:31;;;;;;;;;;;14.60;99.90;;;;;;7334579;19;109889;-61
2023/05/13 05:31:59;;;;;;;;;;;14.60;99.90;;;;;;7330096;19;109883;-61
2023/05/13 05:34:26;;;;;;;;;;;14.60;99.90;;;;;;7333970;19;112455;-61
2023/05/13 05:36:54;;;;;;;;;;;14.60;99.90;;;;;;7334441;19;111895;-61
2023/05/13 05:39:21;;;;;;;;;;;14.70;99.90;;;;;;7337940;19;109856;-61
2023/05/13 05:41:48;;;;;;;;;;;14.80;99.90;;;;;;7333612;19;112604;-61
2023/05/13 05:44:15;;;;;;;;;;;14.80;99.90;;;;;;7333254;19;110390;-61
2023/05/13 05:46:42;;;;;;;;;;;14.80;99.90;;;;;;7332207;19;110705;-61
2023/05/13 05:49:09;;;;;;;;;;;14.80;99.90;;;;;;7332361;19;110603;-61
2023/05/13 05:51:37;;;;;;;;;;;14.80;99.90;;;;;;7334125;19;110046;-61
2023/05/13 05:54:04;;;;;;;;;;;14.90;99.90;;;;;;7334951;19;112104;-61
2023/05/13 05:56:31;;;;;;;;;;;14.90;99.90;;;;;;7331707;19;110348;-61
2023/05/13 05:58:58;;;;;;;;;;;15.00;99.90;;;;;;7338249;19;110312;-61
2023/05/13 06:01:26;;;;;;;;;;;15.10;99.90;;;;;;7331382;19;109488;-61
2023/05/13 06:03:53;;;;;;;;;;;15.30;99.90;;;;;;7335129;19;110327;-61
2023/05/13 06:06:21;;;;;;;;;;;15.40;99.90;;;;;;7331076;19;110744;-61
2023/05/13 06:08:48;;;;;;;;;;;15.50;99.90;;;;;;7335820;19;110428;-61
2023/05/13 06:11:15;;;;;;;;;;;15.60;99.90;;;;;;7332109;19;110756;-62
2023/05/13 06:13:42;;;;;;;;;;;15.70;99.90;;;;;;7330295;19;111060;-61
2023/05/13 06:16:09;;;;;;;;;;;15.70;99.90;;;;;;7332277;19;109892;-62
2023/05/13 06:18:36;;;;;;;;;;;15.80;99.90;;;;;;7331945;19;111142;-62
2023/05/13 06:21:04;;;;;;;;;;;15.80;99.90;;;;;;7337130;19;110108;-62
2023/05/13 06:23:31;;;;;;;;;;;15.90;99.90;;;;;;7336837;19;109521;-62
2023/05/13 06:25:58;;;;;;;;;;;15.90;99.90;;;;;;7331326;19;111079;-62
2023/05/13 06:28:25;;;;;;;;;;;16.00;99.90;;;;;;7336409;19;109475;-62
2023/05/13 06:30:53;;;;;;;;;;;16.20;99.90;;;;;;7333974;19;110079;-63
2023/05/13 06:33:20;;;;;;;;;;;16.30;99.90;;;;;;7332487;19;111253;-61
2023/05/13 06:35:48;;;;;;;;;;;16.30;99.90;;;;;;7330094;19;113546;-62
2023/05/13 06:38:18;;;;;;;;;;;16.30;99.90;;;;;;7335549;19;111273;-63
2023/05/13 06:40:45;;;;;;;;;;;16.30;99.90;;;;;;7336081;19;110749;-62
2023/05/13 06:43:13;;;;;;;;;;;16.30;99.90;;;;;;7337815;19;110230;-63
2023/05/13 06:45:41;;;;;;;;;;;16.20;99.90;;;;;;7331465;19;111407;-62
2023/05/13 06:48:08;;;;;;;;;;;16.20;99.90;;;;;;7331005;19;110106;-63
2023/05/13 06:50:35;;;;;;;;;;;16.20;99.90;;;;;;7334785;19;109775;-62
2023/05/13 06:53:02;;;;;;;;;;;16.30;99.90;;;;;;7330527;19;114456;-63
2023/05/13 06:55:34;;;;;;;;;;;16.30;99.90;;;;;;7335190;19;110218;-62
2023/05/13 06:58:02;;;;;;;;;;;16.40;99.90;;;;;;7334418;19;110144;-63
2023/05/13 07:00:29;;;;;;;;;;;16.50;99.90;;;;;;7328193;19;111362;-62
2023/05/13 07:02:56;;;;;;;;;;;16.60;99.90;;;;;;7332200;19;109736;-62
2023/05/13 07:05:23;;;;;;;;;;;16.70;99.90;;;;;;7335598;19;109958;-62
2023/05/13 07:07:52;;;;;;;;;;;16.70;99.90;;;;;;7324736;19;109881;-62
2023/05/13 07:10:19;;;;;;;;;;;16.80;99.90;;;;;;7331657;19;109351;-62
2023/05/13 07:12:47;;;;;;;;;;;16.90;99.90;;;;;;7327071;19;110688;-63
2023/05/13 07:15:14;;;;;;;;;;;17.00;99.90;;;;;;7332939;19;110700;-63
2023/05/13 07:17:41;;;;;;;;;;;17.10;99.90;;;;;;7323560;19;110950;-63
2023/05/13 07:20:08;;;;;;;;;;;17.00;99.90;;;;;;7327010;19;110291;-63
2023/05/13 07:22:35;;;;;;;;;;;17.10;99.90;;;;;;7326577;19;110076;-63
2023/05/13 07:25:03;;;;;;;;;;;17.20;99.90;;;;;;7330538;19;110861;-63
2023/05/13 07:27:30;;;;;;;;;;;17.40;99.90;;;;;;7332924;19;110685;-63
2023/05/13 07:29:57;;;;;;;;;;;17.40;99.90;;;;;;7331481;19;109732;-64
2023/05/13 07:32:24;;;;;;;;;;;17.40;99.90;;;;;;7337591;19;111217;-63
2023/05/13 07:34:51;;;;;;;;;;;17.60;99.90;;;;;;7330768;19;110046;-64
2023/05/13 07:37:18;;;;;;;;;;;17.80;99.90;;;;;;7330773;19;112265;-70
2023/05/13 07:39:45;;;;;;;;;;;17.80;99.90;;;;;;7331531;19;110904;-64
2023/05/13 07:42:15;;;;;;;;;;;17.90;99.90;;;;;;7328038;19;109831;-65
2023/05/13 07:44:42;;;;;;;;;;;17.90;99.90;;;;;;7331759;19;116189;-63
2023/05/13 07:47:09;;;;;;;;;;;17.90;99.90;;;;;;7327225;19;111258;-63
2023/05/13 07:49:38;;;;;;;;;;;18.00;99.90;;;;;;7331247;19;111183;-63
2023/05/13 07:52:05;;;;;;;;;;;18.00;99.90;;;;;;7331401;19;111135;-63
2023/05/13 07:54:32;;;;;;;;;;;18.00;99.90;;;;;;7329560;19;109873;-62
2023/05/13 07:56:59;;;;;;;;;;;18.00;99.90;;;;;;7330757;19;109720;-65
2023/05/13 07:59:26;;;;;;;;;;;18.10;99.90;;;;;;7328551;19;110270;-63
2023/05/13 08:01:53;;;;;;;;;;;18.20;99.90;;;;;;7324059;19;109675;-66
2023/05/13 08:04:22;;;;;;;;;;;18.30;99.90;;;;;;7327251;19;111245;-67
2023/05/13 08:06:50;;;;;;;;;;;18.40;99.90;;;;;;7328659;19;110267;-69
2023/05/13 08:09:17;;;;;;;;;;;18.50;99.90;;;;;;7330827;19;109889;-68
2023/05/13 08:11:44;;;;;;;;;;;18.60;99.90;;;;;;7333664;19;110592;-68
2023/05/13 08:14:11;;;;;;;;;;;18.70;99.90;;;;;;7328664;19;109484;-69
2023/05/13 08:16:38;;;;;;;;;;;18.70;99.90;;;;;;7329835;19;110186;-69
2023/05/13 08:19:05;;;;;;;;;;;18.70;99.90;;;;;;7333365;19;113453;-68
2023/05/13 08:21:32;;;;;;;;;;;18.80;99.90;;;;;;7333949;19;115188;-69
2023/05/13 08:23:59;;;;;;;;;;;18.80;99.90;;;;;;7331120;19;111827;-69
2023/05/13 08:26:26;;;;;;;;;;;18.80;99.90;;;;;;7332744;19;113628;-69
2023/05/13 08:28:54;;;;;;;;;;;19.00;99.90;;;;;;7332025;19;110234;-68
2023/05/13 08:31:23;;;;;;;;;;;19.00;99.90;;;;;;7343098;19;110131;-69
2023/05/13 08:33:52;;;;;;;;;;;19.10;99.90;;;;;;7338969;19;110699;-69
2023/05/13 08:36:19;;;;;;;;;;;19.20;99.90;;;;;;7338972;19;109602;-69
2023/05/13 08:38:46;;;;;;;;;;;19.40;99.90;;;;;;7340105;19;110118;-69
2023/05/13 08:41:14;;;;;;;;;;;19.40;99.90;;;;;;7336795;19;109762;-70
2023/05/13 08:43:45;;;;;;;;;;;19.50;99.90;;;;;;7340987;19;109889;-70
2023/05/13 08:46:15;;;;;;;;;;;19.60;99.90;;;;;;7328864;19;110741;-71
2023/05/13 08:48:42;;;;;;;;;;;19.70;99.90;;;;;;7338702;19;112558;-70
2023/05/13 08:51:10;;;;;;;;;;;19.80;99.90;;;;;;7336384;19;109555;-71
2023/05/13 08:53:38;;;;;;;;;;;19.80;99.90;;;;;;7344501;19;111318;-71
2023/05/13 08:56:07;;;;;;;;;;;19.80;99.90;;;;;;7338210;19;110543;-70
2023/05/13 08:58:34;;;;;;;;;;;19.80;99.90;;;;;;7339585;19;110874;-70
2023/05/13 09:01:02;;;;;;;;;;;19.80;99.90;;;;;;7339130;19;109542;-71
2023/05/13 09:03:29;;;;;;;;;;;19.80;99.90;;;;;;7337440;19;109596;-72
2023/05/13 09:05:59;;;;;;;;;;;19.80;99.90;;;;;;7337298;19;110447;-71
2023/05/13 09:08:26;;;;;;;;;;;19.80;99.90;;;;;;7334561;19;109759;-71
2023/05/13 09:10:53;;;;;;;;;;;19.90;99.90;;;;;;7339221;19;110092;-71
2023/05/13 09:13:21;;;;;;;;;;;20.00;99.90;;;;;;7331601;19;110805;-71
2023/05/13 09:15:49;;;;;;;;;;;20.00;99.90;;;;;;7342258;19;110100;-71
2023/05/13 09:18:17;;;;;;;;;;;20.00;99.90;;;;;;7334218;19;111408;-74
2023/05/13 09:20:45;;;;;;;;;;;20.10;99.90;;;;;;7336199;19;109713;-71
2023/05/13 09:23:13;;;;;;;;;;;20.10;99.90;;;;;;7334193;19;114921;-71
2023/05/13 09:25:40;;;;;;;;;;;20.10;99.90;;;;;;7336721;19;110710;-69
2023/05/13 09:28:07;;;;;;;;;;;20.20;99.90;;;;;;7336712;19;109462;-69
2023/05/13 09:30:35;;;;;;;;;;;20.40;99.90;;;;;;7338262;19;110338;-70
2023/05/13 09:33:02;;;;;;;;;;;20.40;99.90;;;;;;7336753;19;113109;-69
2023/05/13 09:35:33;;;;;;;;;;;20.50;99.90;;;;;;7334112;19;111222;-68
2023/05/13 09:38:00;;;;;;;;;;;20.70;99.90;;;;;;7339811;19;111168;-67
2023/05/13 09:40:27;;;;;;;;;;;20.70;99.90;;;;;;7331770;19;109425;-67
2023/05/13 09:42:56;;;;;;;;;;;20.80;99.90;;;;;;7333636;19;109790;-68
2023/05/13 09:45:24;;;;;;;;;;;20.90;99.90;;;;;;7332866;19;111756;-68
2023/05/13 09:47:52;;;;;;;;;;;20.90;99.90;;;;;;7333569;19;110737;-69
2023/05/13 09:50:19;;;;;;;;;;;20.90;99.90;;;;;;7335311;19;111694;-69
2023/05/13 09:52:49;;;;;;;;;;;21.00;99.90;;;;;;7333158;19;110099;-68
2023/05/13 09:55:16;;;;;;;;;;;21.00;99.90;;;;;;7329592;19;109658;-74
2023/05/13 09:57:44;;;;;;;;;;;21.10;99.90;;;;;;7329318;19;111173;-70
2023/05/13 10:00:12;;;;;;;;;;;21.10;99.90;;;;;;7337193;19;109911;-68
2023/05/13 10:02:50;;;;;;;;;;;21.20;99.90;;;;;;7334954;19;109566;-72
2023/05/13 10:05:18;;;;;;;;;;;21.30;99.90;;;;;;7327694;19;113553;-72
2023/05/13 10:07:45;;;;;;;;;;;21.30;99.90;;;;;;7332269;19;111279;-75
2023/05/13 10:10:12;;;;;;;;;;;21.40;99.90;;;;;;7333132;19;111966;-74
2023/05/13 10:12:40;;;;;;;;;;;21.40;99.90;;;;;;7327951;19;111424;-74
2023/05/13 10:15:07;;;;;;;;;;;21.60;99.90;;;;;;7332393;19;109482;-73
2023/05/13 10:17:35;;;;;;;;;;;21.60;99.90;;;;;;7332581;19;110486;-74
2023/05/13 10:20:03;;;;;;;;;;;21.60;99.90;;;;;;7335453;19;114389;-71
2023/05/13 10:22:32;;;;;;;;;;;21.70;99.90;;;;;;7330492;19;110916;-75
2023/05/13 10:25:01;;;;;;;;;;;21.80;99.90;;;;;;7330342;19;110300;-68
2023/05/13 10:27:31;;;;;;;;;;;21.90;99.90;;;;;;7330851;19;111133;-67
2023/05/13 10:30:00;;;;;;;;;;;21.90;99.90;;;;;;7333488;19;109463;-68
2023/05/13 10:32:30;;;;;;;;;;;22.00;99.90;;;;;;7335728;19;110262;-65
2023/05/13 10:35:09;;;;;;;;;;;22.00;99.90;;;;;;7332460;19;110612;-68
2023/05/13 10:37:54;;;;;;;;;;;22.10;99.90;;;;;;7335551;19;110041;-68
2023/05/13 10:40:43;;;;;;;;;;;22.20;99.90;;;;;;7334604;19;111660;-71
2023/05/13 10:43:20;;;;;;;;;;;22.20;99.90;;;;;;7341965;19;110340;-68
2023/05/13 10:45:48;;;;;;;;;;;22.20;99.90;;;;;;7337081;19;113390;-71
2023/05/13 10:48:16;;;;;;;;;;;22.30;99.90;;;;;;7334020;19;109625;-67
2023/05/13 10:51:00;;;;;;;;;;;22.40;99.90;;;;;;7331275;19;110450;-72
2023/05/13 10:53:29;;;;;;;;;;;22.40;99.90;;;;;;7328633;19;111923;-68
2023/05/13 10:55:59;;;;;;;;;;;22.50;99.90;;;;;;7333744;19;109475;-70
2023/05/13 10:58:30;;;;;;;;;;;22.50;99.90;;;;;;7334954;19;111202;-76
2023/05/13 11:01:17;;;;;;;;;;;22.50;99.90;;;;;;7334479;19;110873;-70
2023/05/13 11:03:52;;;;;;;;;;;22.60;99.90;;;;;;7333927;19;109573;-75
2023/05/13 11:06:22;;;;;;;;;;;22.80;99.90;;;;;;7338371;19;110384;-74
2023/05/13 11:08:51;;;;;;;;;;;22.90;99.90;;;;;;7334435;19;109921;-73
2023/05/13 11:11:21;;;;;;;;;;;23.00;99.90;;;;;;7328856;19;110436;-69
2023/05/13 11:13:53;;;;;;;;;;;23.10;99.90;;;;;;7333574;19;110204;-67
2023/05/13 11:16:21;;;;;;;;;;;23.10;99.90;;;;;;7333158;19;109708;-69
2023/05/13 11:18:50;;;;;;;;;;;23.00;99.90;;;;;;7330823;19;109923;-69
2023/05/13 11:21:28;;;;;;;;;;;23.00;99.90;;;;;;7329431;19;110322;-70
2023/05/13 11:23:56;;;;;;;;;;;23.10;99.90;;;;;;7325515;19;111805;-70
2023/05/13 11:26:23;;;;;;;;;;;23.20;99.90;;;;;;7331017;19;109849;-68
2023/05/13 11:28:54;;;;;;;;;;;23.20;99.90;;;;;;7338066;19;112491;-71
2023/05/13 11:31:22;;;;;;;;;;;23.30;99.90;;;;;;7327744;19;111117;-71
2023/05/13 11:34:09;;;;;;;;;;;23.20;99.20;;;;;;7331243;19;110895;-69
2023/05/13 11:36:40;;;;;;;;;;;23.10;98.70;;;;;;7329397;19;110379;-69
2023/05/13 11:39:10;;;;;;;;;;;23.20;98.20;;;;;;7332377;19;110247;-68
2023/05/13 11:41:39;;;;;;;;;;;23.40;97.50;;;;;;7328956;19;111213;-69
2023/05/13 11:44:06;;;;;;;;;;;23.50;97.60;;;;;;7332338;19;109917;-69
2023/05/13 11:46:33;;;;;;;;;;;23.60;97.90;;;;;;7330989;19;110365;-70
2023/05/13 11:49:01;;;;;;;;;;;23.70;98.20;;;;;;7332212;19;111158;-70
2023/05/13 11:51:30;;;;;;;;;;;23.70;95.10;;;;;;7333601;19;110372;-70
2023/05/13 11:54:01;;;;;;;;;;;23.60;95.20;;;;;;7328897;19;110881;-71
2023/05/13 11:56:29;;;;;;;;;;;23.60;95.90;;;;;;7326866;19;111193;-72
2023/05/13 11:59:11;;;;;;;;;;;23.70;97.20;;;;;;7329721;19;111512;-71
2023/05/13 12:01:38;;;;;;;;;;;23.80;96.20;;;;;;7333178;19;110662;-71
2023/05/13 12:04:06;;;;;;;;;;;23.70;95.20;;;;;;7332085;19;111712;-70
2023/05/13 12:06:34;;;;;;;;;;;23.70;95.60;;;;;;7339239;19;110030;-71
2023/05/13 12:09:05;;;;;;;;;;;23.80;94.60;;;;;;7337123;19;110251;-71
2023/05/13 12:11:32;;;;;;;;;;;24.00;95.40;;;;;;7339916;19;109888;-71
2023/05/13 12:13:59;;;;;;;;;;;23.80;90.60;;;;;;7341749;19;110578;-72
2023/05/13 12:16:27;;;;;;;;;;;23.70;91.50;;;;;;7340131;19;110587;-71
2023/05/13 12:19:05;;;;;;;;;;;23.90;95.10;;;;;;7334659;19;110926;-70
2023/05/13 12:21:32;;;;;;;;;;;24.10;93.00;;;;;;7335159;19;111180;-69
2023/05/13 12:24:00;;;;;;;;;;;24.30;95.10;;;;;;7328110;19;111339;-75
2023/05/13 12:26:27;;;;;;;;;;;24.50;92.40;;;;;;7340809;19;110148;-72
2023/05/13 12:28:58;;;;;;;;;;;24.50;92.50;;;;;;7338976;19;111253;-72
2023/05/13 12:31:26;;;;;;;;;;;24.50;91.60;;;;;;7337072;19;111283;-72
2023/05/13 12:33:53;;;;;;;;;;;24.70;93.50;;;;;;7345369;19;110849;-72
2023/05/13 12:36:24;;;;;;;;;;;24.80;92.50;;;;;;7338969;19;109739;-73
2023/05/13 12:38:53;;;;;;;;;;;24.80;90.70;;;;;;7339042;19;109667;-72
2023/05/13 12:41:24;;;;;;;;;;;24.70;90.50;;;;;;7335362;19;110408;-73
2023/05/13 12:44:12;;;;;;;;;;;24.80;91.00;;;;;;7339259;19;109658;-70
2023/05/13 12:46:50;;;;;;;;;;;24.90;87.50;;;;;;7337097;19;109532;-72
2023/05/13 12:49:17;;;;;;;;;;;25.00;84.90;;;;;;7335934;19;110224;-72
2023/05/13 12:51:44;;;;;;;;;;;25.00;84.60;;;;;;7340396;19;109678;-72
2023/05/13 12:54:11;;;;;;;;;;;25.00;88.50;;;;;;7335378;19;109480;-71
2023/05/13 12:56:41;;;;;;;;;;;25.10;88.40;;;;;;7343196;19;110635;-67
2023/05/13 12:59:08;;;;;;;;;;;25.30;86.40;;;;;;7336670;19;109802;-68
2023/05/13 13:01:36;;;;;;;;;;;25.40;89.60;;;;;;7338747;19;110291;-73
2023/05/13 13:04:03;;;;;;;;;;;25.50;89.80;;;;;;7338586;19;110826;-72
2023/05/13 13:06:31;;;;;;;;;;;25.50;83.60;;;;;;7336623;19;109706;-76
2023/05/13 13:08:58;;;;;;;;;;;25.20;82.10;;;;;;7337736;19;110428;-76
2023/05/13 13:11:26;;;;;;;;;;;24.90;83.10;;;;;;7336811;19;109619;-75
2023/05/13 13:13:53;;;;;;;;;;;24.70;86.70;;;;;;7334363;19;110539;-75
2023/05/13 13:16:20;;;;;;;;;;;25.00;83.90;;;;;;7334042;19;111066;-76
2023/05/13 13:18:49;;;;;;;;;;;25.20;81.10;;;;;;7341830;19;110093;-76
2023/05/13 13:21:18;;;;;;;;;;;25.00;83.30;;;;;;7335013;19;111052;-75
2023/05/13 13:23:45;;;;;;;;;;;25.00;87.50;;;;;;7336470;19;110748;-76
2023/05/13 13:26:12;;;;;;;;;;;24.90;83.10;;;;;;7336045;19;111167;-75
2023/05/13 13:28:39;;;;;;;;;;;24.70;84.10;;;;;;7337511;19;111564;-76
2023/05/13 13:31:07;;;;;;;;;;;24.60;85.30;;;;;;7334343;19;109823;-70
2023/05/13 13:33:36;;;;;;;;;;;24.60;86.80;;;;;;7337054;19;110032;-73
2023/05/13 13:36:03;;;;;;;;;;;24.60;82.60;;;;;;7335336;19;111542;-73
2023/05/13 13:38:30;;;;;;;;;;;24.70;82.70;;;;;;7335802;19;110008;-73
2023/05/13 13:40:57;;;;;;;;;;;24.80;82.30;;;;;;7340912;19;110076;-70
2023/05/13 13:43:24;;;;;;;;;;;24.90;78.60;;;;;;7335812;19;111304;-71
2023/05/13 13:45:51;;;;;;;;;;;24.90;81.30;;;;;;7334172;19;109240;-70
2023/05/13 13:48:18;;;;;;;;;;;24.90;77.90;;;;;;7333562;19;112526;-71
2023/05/13 13:50:45;;;;;;;;;;;25.00;81.40;;;;;;7335481;19;109348;-72
2023/05/13 13:53:14;;;;;;;;;;;25.10;79.80;;;;;;7331511;19;109721;-70
2023/05/13 13:55:41;;;;;;;;;;;25.20;80.10;;;;;;7335105;19;110174;-72
2023/05/13 13:58:08;;;;;;;;;;;25.50;84.60;;;;;;7335638;19;110861;-89
2023/05/13 14:00:38;;;;;;;;;;;25.70;82.10;;;;;;7345815;19;109803;-96
2023/05/13 14:03:06;;;;;;;;;;;25.80;79.80;;;;;;7359051;19;109868;-94
2023/05/13 14:05:33;;;;;;;;;;;25.60;80.30;;;;;;7336111;19;109250;-75
2023/05/13 14:08:00;;;;;;;;;;;25.60;81.20;;;;;;7333857;19;111635;-75
2023/05/13 14:10:27;;;;;;;;;;;25.70;80.90;;;;;;7335510;19;109615;-77
2023/05/13 14:12:55;;;;;;;;;;;25.50;82.40;;;;;;7333968;19;110669;-73
2023/05/13 14:15:27;;;;;;;;;;;25.30;82.60;;;;;;7332551;19;110666;-71
2023/05/13 14:17:54;;;;;;;;;;;25.20;85.60;;;;;;7335866;19;110840;-72
2023/05/13 14:20:23;;;;;;;;;;;25.20;86.80;;;;;;7333561;19;110379;-67